sensor_id;sensor_type;location;lat;lon;timestamp;P1;durP1;ratioP1;P2;durP2;ratioP2
11427;SDS011;5770;44.504;11.346;2023-01-16T00:01:47;36.30;;;33.13;;
11427;SDS011;5770;44.504;11.346;2023-01-16T00:04:14;38.83;;;35.40;;
11427;SDS011;5770;44.504;11.346;2023-01-16T00:06:41;37.60;;;34.30;;
11427;SDS011;5770;44.504;11.346;2023-01-16T00:09:08;38.97;;;35.58;;
11427;SDS011;5770;44.504;11.346;2023-01-16T00:11:36;40.05;;;36.50;;
11427;SDS011;5770;44.504;11.346;2023-01-16T00:14:02;66.20;;;56.80;;
11427;SDS011;5770;44.504;11.346;2023-01-16T00:16:31;39.17;;;35.78;;
11427;SDS011;5770;44.504;11.346;2023-01-16T00:18:58;45.13;;;40.60;;
11427;SDS011;5770;44.504;11.346;2023-01-16T00:21:26;41.88;;;38.03;;
11427;SDS011;5770;44.504;11.346;2023-01-16T00:23:53;38.78;;;35.38;;
11427;SDS011;5770;44.504;11.346;2023-01-16T00:26:21;38.47;;;35.05;;
11427;SDS011;5770;44.504;11.346;2023-01-16T00:28:48;39.90;;;36.28;;
11427;SDS011;5770;44.504;11.346;2023-01-16T00:31:16;38.17;;;34.80;;
11427;SDS011;5770;44.504;11.346;2023-01-16T00:33:44;38.92;;;35.50;;
11427;SDS011;5770;44.504;11.346;2023-01-16T00:36:11;38.70;;;35.30;;
11427;SDS011;5770;44.504;11.346;2023-01-16T00:38:38;37.92;;;34.58;;
11427;SDS011;5770;44.504;11.346;2023-01-16T00:41:06;38.88;;;35.53;;
11427;SDS011;5770;44.504;11.346;2023-01-16T00:43:33;38.75;;;35.28;;
11427;SDS011;5770;44.504;11.346;2023-01-16T00:46:00;38.97;;;35.53;;
11427;SDS011;5770;44.504;11.346;2023-01-16T00:48:27;38.10;;;34.70;;
11427;SDS011;5770;44.504;11.346;2023-01-16T00:50:56;39.95;;;36.45;;
11427;SDS011;5770;44.504;11.346;2023-01-16T00:53:23;38.30;;;34.85;;
11427;SDS011;5770;44.504;11.346;2023-01-16T00:55:50;38.40;;;35.03;;
11427;SDS011;5770;44.504;11.346;2023-01-16T00:58:18;38.92;;;35.33;;
11427;SDS011;5770;44.504;11.346;2023-01-16T01:00:45;39.97;;;36.28;;
11427;SDS011;5770;44.504;11.346;2023-01-16T01:03:12;38.42;;;35.03;;
11427;SDS011;5770;44.504;11.346;2023-01-16T01:05:40;38.60;;;35.20;;
11427;SDS011;5770;44.504;11.346;2023-01-16T01:08:08;39.72;;;36.08;;
11427;SDS011;5770;44.504;11.346;2023-01-16T01:10:36;39.05;;;35.55;;
11427;SDS011;5770;44.504;11.346;2023-01-16T01:13:04;38.78;;;35.20;;
11427;SDS011;5770;44.504;11.346;2023-01-16T01:15:32;38.38;;;34.97;;
11427;SDS011;5770;44.504;11.346;2023-01-16T01:18:01;39.45;;;35.95;;
11427;SDS011;5770;44.504;11.346;2023-01-16T01:20:29;39.80;;;36.22;;
11427;SDS011;5770;44.504;11.346;2023-01-16T01:22:56;38.40;;;35.00;;
11427;SDS011;5770;44.504;11.346;2023-01-16T01:25:24;39.85;;;36.28;;
11427;SDS011;5770;44.504;11.346;2023-01-16T01:27:51;40.95;;;37.25;;
11427;SDS011;5770;44.504;11.346;2023-01-16T01:30:18;41.15;;;37.45;;
11427;SDS011;5770;44.504;11.346;2023-01-16T01:32:46;42.97;;;39.08;;
11427;SDS011;5770;44.504;11.346;2023-01-16T01:35:13;44.50;;;40.42;;
11427;SDS011;5770;44.504;11.346;2023-01-16T01:37:41;43.47;;;39.55;;
11427;SDS011;5770;44.504;11.346;2023-01-16T01:40:08;48.22;;;43.63;;
11427;SDS011;5770;44.504;11.346;2023-01-16T01:42:38;46.75;;;42.25;;
11427;SDS011;5770;44.504;11.346;2023-01-16T01:45:17;47.80;;;43.30;;
11427;SDS011;5770;44.504;11.346;2023-01-16T01:47:48;48.13;;;43.42;;
11427;SDS011;5770;44.504;11.346;2023-01-16T01:50:27;48.38;;;43.88;;
11427;SDS011;5770;44.504;11.346;2023-01-16T01:52:58;48.22;;;43.53;;
11427;SDS011;5770;44.504;11.346;2023-01-16T01:55:28;51.38;;;46.47;;
11427;SDS011;5770;44.504;11.346;2023-01-16T01:57:57;50.97;;;46.05;;
11427;SDS011;5770;44.504;11.346;2023-01-16T02:00:27;52.08;;;47.05;;
11427;SDS011;5770;44.504;11.346;2023-01-16T02:02:55;52.72;;;47.60;;
11427;SDS011;5770;44.504;11.346;2023-01-16T02:05:27;53.13;;;47.90;;
11427;SDS011;5770;44.504;11.346;2023-01-16T02:07:55;57.25;;;51.60;;
11427;SDS011;5770;44.504;11.346;2023-01-16T02:10:27;59.08;;;52.78;;
11427;SDS011;5770;44.504;11.346;2023-01-16T02:13:00;58.97;;;52.97;;
11427;SDS011;5770;44.504;11.346;2023-01-16T02:15:27;58.83;;;52.75;;
11427;SDS011;5770;44.504;11.346;2023-01-16T02:17:55;59.80;;;53.63;;
11427;SDS011;5770;44.504;11.346;2023-01-16T02:20:44;62.22;;;55.17;;
11427;SDS011;5770;44.504;11.346;2023-01-16T02:23:28;62.50;;;55.97;;
11427;SDS011;5770;44.504;11.346;2023-01-16T02:26:51;63.22;;;56.33;;
11427;SDS011;5770;44.504;11.346;2023-01-16T02:29:35;64.30;;;57.13;;
11427;SDS011;5770;44.504;11.346;2023-01-16T02:32:30;61.42;;;54.88;;
11427;SDS011;5770;44.504;11.346;2023-01-16T02:35:17;62.50;;;55.97;;
11427;SDS011;5770;44.504;11.346;2023-01-16T02:37:49;66.30;;;58.88;;
11427;SDS011;5770;44.504;11.346;2023-01-16T02:40:25;66.10;;;59.00;;
11427;SDS011;5770;44.504;11.346;2023-01-16T02:42:57;65.28;;;58.33;;
11427;SDS011;5770;44.504;11.346;2023-01-16T02:45:33;67.30;;;59.95;;
11427;SDS011;5770;44.504;11.346;2023-01-16T02:48:06;68.68;;;61.22;;
11427;SDS011;5770;44.504;11.346;2023-01-16T02:50:39;67.90;;;60.60;;
11427;SDS011;5770;44.504;11.346;2023-01-16T02:53:08;70.43;;;61.58;;
11427;SDS011;5770;44.504;11.346;2023-01-16T02:55:41;67.45;;;60.05;;
11427;SDS011;5770;44.504;11.346;2023-01-16T02:58:12;66.55;;;59.40;;
11427;SDS011;5770;44.504;11.346;2023-01-16T03:00:48;65.95;;;59.05;;
11427;SDS011;5770;44.504;11.346;2023-01-16T03:03:24;66.85;;;59.47;;
11427;SDS011;5770;44.504;11.346;2023-01-16T03:06:12;62.58;;;55.88;;
11427;SDS011;5770;44.504;11.346;2023-01-16T03:09:12;64.95;;;57.85;;
11427;SDS011;5770;44.504;11.346;2023-01-16T03:11:51;64.35;;;57.42;;
11427;SDS011;5770;44.504;11.346;2023-01-16T03:14:28;63.67;;;56.78;;
11427;SDS011;5770;44.504;11.346;2023-01-16T03:17:07;63.35;;;56.50;;
11427;SDS011;5770;44.504;11.346;2023-01-16T03:20:01;65.82;;;58.65;;
11427;SDS011;5770;44.504;11.346;2023-01-16T03:22:38;67.65;;;58.42;;
11427;SDS011;5770;44.504;11.346;2023-01-16T03:25:11;64.90;;;57.30;;
11427;SDS011;5770;44.504;11.346;2023-01-16T03:27:42;64.07;;;57.17;;
11427;SDS011;5770;44.504;11.346;2023-01-16T03:30:12;65.88;;;58.67;;
11427;SDS011;5770;44.504;11.346;2023-01-16T03:32:44;65.75;;;58.55;;
11427;SDS011;5770;44.504;11.346;2023-01-16T03:35:15;64.10;;;57.08;;
11427;SDS011;5770;44.504;11.346;2023-01-16T03:37:45;67.80;;;58.72;;
11427;SDS011;5770;44.504;11.346;2023-01-16T03:40:14;69.10;;;61.50;;
11427;SDS011;5770;44.504;11.346;2023-01-16T03:42:45;70.07;;;60.20;;
11427;SDS011;5770;44.504;11.346;2023-01-16T03:45:15;71.30;;;62.25;;
11427;SDS011;5770;44.504;11.346;2023-01-16T03:47:44;75.20;;;63.75;;
11427;SDS011;5770;44.504;11.346;2023-01-16T03:50:14;74.28;;;63.95;;
11427;SDS011;5770;44.504;11.346;2023-01-16T03:52:47;73.53;;;63.78;;
11427;SDS011;5770;44.504;11.346;2023-01-16T03:55:19;73.35;;;64.03;;
11427;SDS011;5770;44.504;11.346;2023-01-16T03:57:54;74.82;;;65.00;;
11427;SDS011;5770;44.504;11.346;2023-01-16T04:00:26;78.20;;;65.10;;
11427;SDS011;5770;44.504;11.346;2023-01-16T04:02:59;74.18;;;65.43;;
11427;SDS011;5770;44.504;11.346;2023-01-16T04:05:34;77.93;;;64.97;;
11427;SDS011;5770;44.504;11.346;2023-01-16T04:08:08;77.45;;;64.95;;
11427;SDS011;5770;44.504;11.346;2023-01-16T04:10:40;73.78;;;64.65;;
11427;SDS011;5770;44.504;11.346;2023-01-16T04:13:10;75.18;;;65.50;;
11427;SDS011;5770;44.504;11.346;2023-01-16T04:15:41;75.88;;;63.33;;
11427;SDS011;5770;44.504;11.346;2023-01-16T04:18:10;76.20;;;65.13;;
11427;SDS011;5770;44.504;11.346;2023-01-16T04:20:39;71.72;;;62.15;;
11427;SDS011;5770;44.504;11.346;2023-01-16T04:23:09;76.68;;;63.67;;
11427;SDS011;5770;44.504;11.346;2023-01-16T04:25:36;75.07;;;62.65;;
11427;SDS011;5770;44.504;11.346;2023-01-16T04:28:03;75.72;;;64.00;;
11427;SDS011;5770;44.504;11.346;2023-01-16T04:30:30;74.85;;;63.60;;
11427;SDS011;5770;44.504;11.346;2023-01-16T04:33:00;75.80;;;62.83;;
11427;SDS011;5770;44.504;11.346;2023-01-16T04:35:27;75.75;;;63.50;;
11427;SDS011;5770;44.504;11.346;2023-01-16T04:37:56;71.40;;;61.65;;
11427;SDS011;5770;44.504;11.346;2023-01-16T04:40:23;71.18;;;60.97;;
11427;SDS011;5770;44.504;11.346;2023-01-16T04:42:51;72.80;;;61.03;;
11427;SDS011;5770;44.504;11.346;2023-01-16T04:45:19;74.03;;;60.88;;
11427;SDS011;5770;44.504;11.346;2023-01-16T04:47:47;72.90;;;60.72;;
11427;SDS011;5770;44.504;11.346;2023-01-16T04:50:15;68.65;;;60.45;;
11427;SDS011;5770;44.504;11.346;2023-01-16T04:52:42;71.07;;;60.42;;
11427;SDS011;5770;44.504;11.346;2023-01-16T04:55:11;72.20;;;60.63;;
11427;SDS011;5770;44.504;11.346;2023-01-16T04:57:39;73.30;;;61.40;;
11427;SDS011;5770;44.504;11.346;2023-01-16T05:00:07;71.03;;;60.20;;
11427;SDS011;5770;44.504;11.346;2023-01-16T05:02:38;74.35;;;60.83;;
11427;SDS011;5770;44.504;11.346;2023-01-16T05:05:05;72.10;;;61.08;;
11427;SDS011;5770;44.504;11.346;2023-01-16T05:07:33;67.97;;;57.92;;
11427;SDS011;5770;44.504;11.346;2023-01-16T05:10:00;74.70;;;63.25;;
11427;SDS011;5770;44.504;11.346;2023-01-16T05:12:29;74.55;;;59.63;;
11427;SDS011;5770;44.504;11.346;2023-01-16T05:14:56;76.68;;;62.65;;
11427;SDS011;5770;44.504;11.346;2023-01-16T05:17:23;73.53;;;61.28;;
11427;SDS011;5770;44.504;11.346;2023-01-16T05:19:51;73.85;;;60.25;;
11427;SDS011;5770;44.504;11.346;2023-01-16T05:22:19;71.88;;;60.63;;
11427;SDS011;5770;44.504;11.346;2023-01-16T05:24:46;73.22;;;60.92;;
11427;SDS011;5770;44.504;11.346;2023-01-16T05:27:13;70.93;;;59.40;;
11427;SDS011;5770;44.504;11.346;2023-01-16T05:29:42;78.38;;;62.55;;
11427;SDS011;5770;44.504;11.346;2023-01-16T05:32:09;74.53;;;60.80;;
11427;SDS011;5770;44.504;11.346;2023-01-16T05:34:36;72.97;;;60.15;;
11427;SDS011;5770;44.504;11.346;2023-01-16T05:37:04;72.32;;;59.30;;
11427;SDS011;5770;44.504;11.346;2023-01-16T05:39:31;70.40;;;57.70;;
11427;SDS011;5770;44.504;11.346;2023-01-16T05:41:58;72.28;;;59.53;;
11427;SDS011;5770;44.504;11.346;2023-01-16T05:44:25;72.82;;;59.90;;
11427;SDS011;5770;44.504;11.346;2023-01-16T05:46:54;68.88;;;57.53;;
11427;SDS011;5770;44.504;11.346;2023-01-16T05:49:21;72.60;;;59.38;;
11427;SDS011;5770;44.504;11.346;2023-01-16T05:51:48;71.60;;;60.58;;
11427;SDS011;5770;44.504;11.346;2023-01-16T05:54:16;71.85;;;58.97;;
11427;SDS011;5770;44.504;11.346;2023-01-16T05:56:43;75.30;;;60.78;;
11427;SDS011;5770;44.504;11.346;2023-01-16T05:59:10;74.00;;;60.65;;
11427;SDS011;5770;44.504;11.346;2023-01-16T06:01:37;74.25;;;59.65;;
11427;SDS011;5770;44.504;11.346;2023-01-16T06:04:06;72.30;;;58.67;;
11427;SDS011;5770;44.504;11.346;2023-01-16T06:06:33;73.57;;;59.42;;
11427;SDS011;5770;44.504;11.346;2023-01-16T06:09:00;70.18;;;56.65;;
11427;SDS011;5770;44.504;11.346;2023-01-16T06:11:27;71.85;;;58.47;;
11427;SDS011;5770;44.504;11.346;2023-01-16T06:13:54;69.97;;;57.75;;
11427;SDS011;5770;44.504;11.346;2023-01-16T06:16:22;69.63;;;57.00;;
11427;SDS011;5770;44.504;11.346;2023-01-16T06:18:49;72.18;;;57.10;;
11427;SDS011;5770;44.504;11.346;2023-01-16T06:21:17;71.75;;;57.35;;
11427;SDS011;5770;44.504;11.346;2023-01-16T06:23:45;70.93;;;56.55;;
11427;SDS011;5770;44.504;11.346;2023-01-16T06:26:12;71.03;;;55.38;;
11427;SDS011;5770;44.504;11.346;2023-01-16T06:28:39;69.80;;;56.00;;
11427;SDS011;5770;44.504;11.346;2023-01-16T06:31:06;65.00;;;54.50;;
11427;SDS011;5770;44.504;11.346;2023-01-16T06:33:34;63.40;;;52.97;;
11427;SDS011;5770;44.504;11.346;2023-01-16T06:36:01;63.03;;;53.75;;
11427;SDS011;5770;44.504;11.346;2023-01-16T06:38:32;64.25;;;53.30;;
11427;SDS011;5770;44.504;11.346;2023-01-16T06:40:59;66.03;;;54.60;;
11427;SDS011;5770;44.504;11.346;2023-01-16T06:43:27;63.35;;;52.22;;
11427;SDS011;5770;44.504;11.346;2023-01-16T06:45:54;64.63;;;53.15;;
11427;SDS011;5770;44.504;11.346;2023-01-16T06:48:21;65.10;;;52.75;;
11427;SDS011;5770;44.504;11.346;2023-01-16T06:50:49;60.05;;;49.85;;
11427;SDS011;5770;44.504;11.346;2023-01-16T06:53:16;60.42;;;48.97;;
11427;SDS011;5770;44.504;11.346;2023-01-16T06:55:44;57.70;;;47.70;;
11427;SDS011;5770;44.504;11.346;2023-01-16T06:58:12;59.60;;;47.53;;
11427;SDS011;5770;44.504;11.346;2023-01-16T07:00:39;56.55;;;46.55;;
11427;SDS011;5770;44.504;11.346;2023-01-16T07:03:06;57.42;;;46.95;;
11427;SDS011;5770;44.504;11.346;2023-01-16T07:05:33;54.00;;;44.97;;
11427;SDS011;5770;44.504;11.346;2023-01-16T07:08:01;55.13;;;45.33;;
11427;SDS011;5770;44.504;11.346;2023-01-16T07:10:28;55.38;;;44.80;;
11427;SDS011;5770;44.504;11.346;2023-01-16T07:12:59;55.47;;;44.78;;
11427;SDS011;5770;44.504;11.346;2023-01-16T07:15:29;54.28;;;43.72;;
11427;SDS011;5770;44.504;11.346;2023-01-16T07:18:15;53.28;;;41.97;;
11427;SDS011;5770;44.504;11.346;2023-01-16T07:21:01;54.22;;;41.92;;
11427;SDS011;5770;44.504;11.346;2023-01-16T07:23:49;53.40;;;42.42;;
11427;SDS011;5770;44.504;11.346;2023-01-16T07:26:20;52.35;;;40.47;;
11427;SDS011;5770;44.504;11.346;2023-01-16T07:28:49;50.38;;;40.25;;
11427;SDS011;5770;44.504;11.346;2023-01-16T07:31:18;52.03;;;39.55;;
11427;SDS011;5770;44.504;11.346;2023-01-16T07:33:45;48.47;;;38.47;;
11427;SDS011;5770;44.504;11.346;2023-01-16T07:36:12;49.25;;;39.83;;
11427;SDS011;5770;44.504;11.346;2023-01-16T07:38:40;48.17;;;38.92;;
11427;SDS011;5770;44.504;11.346;2023-01-16T07:41:07;46.92;;;37.78;;
11427;SDS011;5770;44.504;11.346;2023-01-16T07:43:34;46.85;;;37.17;;
11427;SDS011;5770;44.504;11.346;2023-01-16T07:46:02;46.95;;;38.38;;
11427;SDS011;5770;44.504;11.346;2023-01-16T07:48:29;47.17;;;37.40;;
11427;SDS011;5770;44.504;11.346;2023-01-16T07:50:57;45.97;;;36.75;;
11427;SDS011;5770;44.504;11.346;2023-01-16T07:53:26;46.47;;;36.95;;
11427;SDS011;5770;44.504;11.346;2023-01-16T07:56:00;44.08;;;34.92;;
11427;SDS011;5770;44.504;11.346;2023-01-16T07:58:28;47.72;;;35.90;;
11427;SDS011;5770;44.504;11.346;2023-01-16T08:00:57;48.70;;;36.75;;
11427;SDS011;5770;44.504;11.346;2023-01-16T08:03:32;42.75;;;33.47;;
11427;SDS011;5770;44.504;11.346;2023-01-16T08:05:59;46.33;;;37.30;;
11427;SDS011;5770;44.504;11.346;2023-01-16T08:08:30;44.88;;;34.33;;
11427;SDS011;5770;44.504;11.346;2023-01-16T08:10:58;44.25;;;34.53;;
11427;SDS011;5770;44.504;11.346;2023-01-16T08:13:47;44.47;;;34.85;;
11427;SDS011;5770;44.504;11.346;2023-01-16T08:16:16;43.97;;;34.38;;
11427;SDS011;5770;44.504;11.346;2023-01-16T08:18:44;44.30;;;33.38;;
11427;SDS011;5770;44.504;11.346;2023-01-16T08:21:13;44.78;;;33.95;;
11427;SDS011;5770;44.504;11.346;2023-01-16T08:23:42;45.70;;;35.45;;
11427;SDS011;5770;44.504;11.346;2023-01-16T08:26:09;46.10;;;35.28;;
11427;SDS011;5770;44.504;11.346;2023-01-16T08:28:38;45.85;;;35.42;;
11427;SDS011;5770;44.504;11.346;2023-01-16T08:31:06;42.65;;;33.35;;
11427;SDS011;5770;44.504;11.346;2023-01-16T08:33:34;39.40;;;30.13;;
11427;SDS011;5770;44.504;11.346;2023-01-16T08:36:04;34.67;;;27.83;;
11427;SDS011;5770;44.504;11.346;2023-01-16T08:38:32;36.40;;;27.73;;
11427;SDS011;5770;44.504;11.346;2023-01-16T08:40:59;34.13;;;26.73;;
11427;SDS011;5770;44.504;11.346;2023-01-16T08:43:27;36.40;;;27.33;;
11427;SDS011;5770;44.504;11.346;2023-01-16T08:46:14;35.03;;;27.60;;
11427;SDS011;5770;44.504;11.346;2023-01-16T08:49:01;33.75;;;25.50;;
11427;SDS011;5770;44.504;11.346;2023-01-16T08:51:48;34.78;;;26.33;;
11427;SDS011;5770;44.504;11.346;2023-01-16T08:54:15;31.55;;;23.75;;
11427;SDS011;5770;44.504;11.346;2023-01-16T08:56:43;30.02;;;23.85;;
11427;SDS011;5770;44.504;11.346;2023-01-16T08:59:10;28.17;;;21.90;;
11427;SDS011;5770;44.504;11.346;2023-01-16T09:01:37;29.58;;;22.75;;
11427;SDS011;5770;44.504;11.346;2023-01-16T09:04:05;27.92;;;21.55;;
11427;SDS011;5770;44.504;11.346;2023-01-16T09:06:32;29.63;;;22.38;;
11427;SDS011;5770;44.504;11.346;2023-01-16T09:09:04;29.00;;;21.83;;
11427;SDS011;5770;44.504;11.346;2023-01-16T09:11:32;29.08;;;21.30;;
11427;SDS011;5770;44.504;11.346;2023-01-16T09:14:16;26.88;;;21.58;;
11427;SDS011;5770;44.504;11.346;2023-01-16T09:16:43;25.30;;;20.65;;
11427;SDS011;5770;44.504;11.346;2023-01-16T09:19:12;30.88;;;21.23;;
11427;SDS011;5770;44.504;11.346;2023-01-16T09:21:41;29.30;;;22.90;;
11427;SDS011;5770;44.504;11.346;2023-01-16T09:24:10;28.65;;;23.02;;
11427;SDS011;5770;44.504;11.346;2023-01-16T09:26:37;31.73;;;25.13;;
11427;SDS011;5770;44.504;11.346;2023-01-16T09:29:04;30.15;;;24.65;;
11427;SDS011;5770;44.504;11.346;2023-01-16T09:31:31;28.42;;;22.75;;
11427;SDS011;5770;44.504;11.346;2023-01-16T09:33:58;28.80;;;23.20;;
11427;SDS011;5770;44.504;11.346;2023-01-16T09:36:26;27.65;;;23.20;;
11427;SDS011;5770;44.504;11.346;2023-01-16T09:38:53;22.65;;;19.55;;
11427;SDS011;5770;44.504;11.346;2023-01-16T09:41:21;25.70;;;19.83;;
11427;SDS011;5770;44.504;11.346;2023-01-16T09:44:08;25.80;;;20.98;;
11427;SDS011;5770;44.504;11.346;2023-01-16T09:46:40;28.27;;;22.42;;
11427;SDS011;5770;44.504;11.346;2023-01-16T09:49:14;27.38;;;20.63;;
11427;SDS011;5770;44.504;11.346;2023-01-16T09:51:46;28.60;;;21.73;;
11427;SDS011;5770;44.504;11.346;2023-01-16T09:54:33;26.58;;;22.15;;
11427;SDS011;5770;44.504;11.346;2023-01-16T09:57:21;26.17;;;21.25;;
11427;SDS011;5770;44.504;11.346;2023-01-16T10:00:07;24.92;;;20.05;;
11427;SDS011;5770;44.504;11.346;2023-01-16T10:02:35;25.55;;;19.33;;
11427;SDS011;5770;44.504;11.346;2023-01-16T10:05:03;29.65;;;20.45;;
11427;SDS011;5770;44.504;11.346;2023-01-16T10:07:36;29.90;;;20.80;;
11427;SDS011;5770;44.504;11.346;2023-01-16T10:10:25;32.15;;;21.48;;
11427;SDS011;5770;44.504;11.346;2023-01-16T10:13:11;28.40;;;22.30;;
11427;SDS011;5770;44.504;11.346;2023-01-16T10:15:51;28.60;;;21.17;;
11427;SDS011;5770;44.504;11.346;2023-01-16T10:18:28;22.92;;;19.27;;
11427;SDS011;5770;44.504;11.346;2023-01-16T10:23:57;22.98;;;18.38;;
11427;SDS011;5770;44.504;11.346;2023-01-16T10:26:28;25.48;;;18.55;;
11427;SDS011;5770;44.504;11.346;2023-01-16T10:29:01;24.90;;;19.25;;
11427;SDS011;5770;44.504;11.346;2023-01-16T10:31:42;26.02;;;21.45;;
11427;SDS011;5770;44.504;11.346;2023-01-16T10:34:14;26.63;;;20.02;;
11427;SDS011;5770;44.504;11.346;2023-01-16T10:36:48;25.10;;;18.77;;
11427;SDS011;5770;44.504;11.346;2023-01-16T10:39:18;24.77;;;19.58;;
11427;SDS011;5770;44.504;11.346;2023-01-16T10:41:47;25.40;;;20.17;;
11427;SDS011;5770;44.504;11.346;2023-01-16T10:44:36;26.23;;;19.30;;
11427;SDS011;5770;44.504;11.346;2023-01-16T10:47:23;24.42;;;19.48;;
11427;SDS011;5770;44.504;11.346;2023-01-16T10:50:10;25.73;;;20.23;;
11427;SDS011;5770;44.504;11.346;2023-01-16T10:52:37;28.15;;;20.83;;
11427;SDS011;5770;44.504;11.346;2023-01-16T10:55:05;28.08;;;22.25;;
11427;SDS011;5770;44.504;11.346;2023-01-16T10:57:34;28.02;;;21.63;;
11427;SDS011;5770;44.504;11.346;2023-01-16T11:00:06;27.92;;;21.70;;
11427;SDS011;5770;44.504;11.346;2023-01-16T11:02:42;28.42;;;22.42;;
11427;SDS011;5770;44.504;11.346;2023-01-16T11:05:21;29.10;;;22.83;;
11427;SDS011;5770;44.504;11.346;2023-01-16T11:07:52;29.90;;;22.55;;
11427;SDS011;5770;44.504;11.346;2023-01-16T11:10:22;27.20;;;22.23;;
11427;SDS011;5770;44.504;11.346;2023-01-16T11:12:49;29.50;;;23.23;;
11427;SDS011;5770;44.504;11.346;2023-01-16T11:15:37;30.50;;;23.85;;
11427;SDS011;5770;44.504;11.346;2023-01-16T11:18:21;28.52;;;22.02;;
11427;SDS011;5770;44.504;11.346;2023-01-16T11:20:56;29.65;;;22.95;;
11427;SDS011;5770;44.504;11.346;2023-01-16T11:23:26;27.77;;;21.88;;
11427;SDS011;5770;44.504;11.346;2023-01-16T11:26:01;29.23;;;22.58;;
11427;SDS011;5770;44.504;11.346;2023-01-16T11:28:30;29.35;;;22.30;;
11427;SDS011;5770;44.504;11.346;2023-01-16T11:31:01;29.20;;;22.45;;
11427;SDS011;5770;44.504;11.346;2023-01-16T11:33:32;28.23;;;22.42;;
11427;SDS011;5770;44.504;11.346;2023-01-16T11:36:04;30.60;;;23.40;;
11427;SDS011;5770;44.504;11.346;2023-01-16T11:38:32;27.08;;;21.83;;
11427;SDS011;5770;44.504;11.346;2023-01-16T11:41:03;31.27;;;23.20;;
11427;SDS011;5770;44.504;11.346;2023-01-16T11:43:33;34.80;;;23.23;;
11427;SDS011;5770;44.504;11.346;2023-01-16T11:46:22;31.58;;;25.17;;
11427;SDS011;5770;44.504;11.346;2023-01-16T11:48:58;32.47;;;23.65;;
11427;SDS011;5770;44.504;11.346;2023-01-16T11:51:28;32.67;;;24.58;;
11427;SDS011;5770;44.504;11.346;2023-01-16T11:53:57;30.30;;;24.65;;
11427;SDS011;5770;44.504;11.346;2023-01-16T11:56:46;32.97;;;24.75;;
11427;SDS011;5770;44.504;11.346;2023-01-16T11:59:34;35.42;;;26.15;;
11427;SDS011;5770;44.504;11.346;2023-01-16T12:05:29;34.80;;;26.05;;
11427;SDS011;5770;44.504;11.346;2023-01-16T12:08:24;34.13;;;25.63;;
11427;SDS011;5770;44.504;11.346;2023-01-16T12:11:01;31.25;;;26.25;;
11427;SDS011;5770;44.504;11.346;2023-01-16T12:13:34;36.00;;;27.58;;
11427;SDS011;5770;44.504;11.346;2023-01-16T12:16:27;34.88;;;27.25;;
11427;SDS011;5770;44.504;11.346;2023-01-16T12:19:13;31.48;;;26.27;;
11427;SDS011;5770;44.504;11.346;2023-01-16T12:21:56;32.65;;;25.80;;
11427;SDS011;5770;44.504;11.346;2023-01-16T12:24:33;28.40;;;23.90;;
11427;SDS011;5770;44.504;11.346;2023-01-16T12:27:11;27.55;;;24.42;;
11427;SDS011;5770;44.504;11.346;2023-01-16T12:29:49;33.08;;;26.30;;
11427;SDS011;5770;44.504;11.346;2023-01-16T12:32:29;28.08;;;24.55;;
11427;SDS011;5770;44.504;11.346;2023-01-16T12:35:19;33.65;;;24.75;;
11427;SDS011;5770;44.504;11.346;2023-01-16T12:38:04;31.50;;;27.10;;
11427;SDS011;5770;44.504;11.346;2023-01-16T12:40:48;30.50;;;25.48;;
11427;SDS011;5770;44.504;11.346;2023-01-16T12:43:43;31.17;;;27.20;;
11427;SDS011;5770;44.504;11.346;2023-01-16T12:46:20;38.17;;;31.10;;
11427;SDS011;5770;44.504;11.346;2023-01-16T12:48:55;35.67;;;31.42;;
11427;SDS011;5770;44.504;11.346;2023-01-16T12:51:40;45.42;;;38.30;;
11427;SDS011;5770;44.504;11.346;2023-01-16T12:54:28;46.28;;;38.97;;
11427;SDS011;5770;44.504;11.346;2023-01-16T12:57:13;47.33;;;37.92;;
11427;SDS011;5770;44.504;11.346;2023-01-16T12:59:56;47.05;;;40.17;;
11427;SDS011;5770;44.504;11.346;2023-01-16T13:02:29;50.13;;;40.92;;
11427;SDS011;5770;44.504;11.346;2023-01-16T13:05:04;50.83;;;42.03;;
11427;SDS011;5770;44.504;11.346;2023-01-16T13:07:33;47.90;;;41.95;;
11427;SDS011;5770;44.504;11.346;2023-01-16T13:10:05;48.17;;;42.10;;
11427;SDS011;5770;44.504;11.346;2023-01-16T13:12:58;46.63;;;41.33;;
11427;SDS011;5770;44.504;11.346;2023-01-16T13:15:45;49.05;;;41.65;;
11427;SDS011;5770;44.504;11.346;2023-01-16T13:18:17;51.70;;;42.78;;
11427;SDS011;5770;44.504;11.346;2023-01-16T13:20:47;50.58;;;43.75;;
11427;SDS011;5770;44.504;11.346;2023-01-16T13:23:19;49.28;;;41.75;;
11427;SDS011;5770;44.504;11.346;2023-01-16T13:25:50;54.80;;;43.83;;
11427;SDS011;5770;44.504;11.346;2023-01-16T13:28:24;52.50;;;43.95;;
11427;SDS011;5770;44.504;11.346;2023-01-16T13:30:57;55.22;;;44.50;;
11427;SDS011;5770;44.504;11.346;2023-01-16T13:33:27;53.00;;;43.17;;
11427;SDS011;5770;44.504;11.346;2023-01-16T13:35:59;49.03;;;41.15;;
11427;SDS011;5770;44.504;11.346;2023-01-16T13:38:42;52.30;;;41.83;;
11427;SDS011;5770;44.504;11.346;2023-01-16T13:41:22;52.42;;;42.03;;
11427;SDS011;5770;44.504;11.346;2023-01-16T13:43:52;54.20;;;42.95;;
11427;SDS011;5770;44.504;11.346;2023-01-16T13:46:42;53.10;;;43.25;;
11427;SDS011;5770;44.504;11.346;2023-01-16T13:49:15;51.03;;;43.63;;
11427;SDS011;5770;44.504;11.346;2023-01-16T13:51:46;57.65;;;42.78;;
11427;SDS011;5770;44.504;11.346;2023-01-16T13:54:18;52.70;;;41.97;;
11427;SDS011;5770;44.504;11.346;2023-01-16T13:56:55;52.47;;;43.58;;
11427;SDS011;5770;44.504;11.346;2023-01-16T13:59:33;40.30;;;34.40;;
11427;SDS011;5770;44.504;11.346;2023-01-16T14:02:17;40.00;;;34.33;;
11427;SDS011;5770;44.504;11.346;2023-01-16T14:07:50;7.40;;;6.57;;
11427;SDS011;5770;44.504;11.346;2023-01-16T14:10:51;2.63;;;2.42;;
11427;SDS011;5770;44.504;11.346;2023-01-16T14:13:31;4.35;;;1.15;;
11427;SDS011;5770;44.504;11.346;2023-01-16T14:19:00;1.05;;;0.70;;
11427;SDS011;5770;44.504;11.346;2023-01-16T14:21:28;0.60;;;0.60;;
11427;SDS011;5770;44.504;11.346;2023-01-16T14:24:07;0.73;;;0.73;;
11427;SDS011;5770;44.504;11.346;2023-01-16T14:26:42;0.63;;;0.63;;
11427;SDS011;5770;44.504;11.346;2023-01-16T14:29:22;1.05;;;0.63;;
11427;SDS011;5770;44.504;11.346;2023-01-16T14:31:54;1.55;;;0.70;;
11427;SDS011;5770;44.504;11.346;2023-01-16T14:34:25;0.57;;;0.57;;
11427;SDS011;5770;44.504;11.346;2023-01-16T14:36:59;0.63;;;0.63;;
11427;SDS011;5770;44.504;11.346;2023-01-16T14:39:30;0.70;;;0.60;;
11427;SDS011;5770;44.504;11.346;2023-01-16T14:42:03;0.93;;;0.80;;
11427;SDS011;5770;44.504;11.346;2023-01-16T14:48:09;1.35;;;0.80;;
11427;SDS011;5770;44.504;11.346;2023-01-16T14:50:59;0.90;;;0.90;;
11427;SDS011;5770;44.504;11.346;2023-01-16T14:53:51;0.95;;;0.88;;
11427;SDS011;5770;44.504;11.346;2023-01-16T14:56:39;0.95;;;0.85;;
11427;SDS011;5770;44.504;11.346;2023-01-16T14:59:09;2.35;;;0.88;;
11427;SDS011;5770;44.504;11.346;2023-01-16T15:01:40;1.00;;;0.90;;
11427;SDS011;5770;44.504;11.346;2023-01-16T15:04:28;1.23;;;0.80;;
11427;SDS011;5770;44.504;11.346;2023-01-16T15:07:04;1.98;;;1.10;;
11427;SDS011;5770;44.504;11.346;2023-01-16T15:09:32;3.55;;;0.98;;
11427;SDS011;5770;44.504;11.346;2023-01-16T15:12:09;1.20;;;0.80;;